sensor_id;sensor_type;location;lat;lon;timestamp;pressure;altitude;pressure_sealevel;temperature;humidity
12636;BME280;6383;50.830;7.210;2023-04-30T00:02:25;101409.22;;;13.19;68.22
12636;BME280;6383;50.830;7.210;2023-04-30T00:04:54;101408.19;;;13.15;68.22
12636;BME280;6383;50.830;7.210;2023-04-30T00:07:22;101411.19;;;13.14;68.14
12636;BME280;6383;50.830;7.210;2023-04-30T00:09:51;101404.69;;;13.10;67.69
12636;BME280;6383;50.830;7.210;2023-04-30T00:12:24;101413.78;;;13.05;67.85
12636;BME280;6383;50.830;7.210;2023-04-30T00:14:51;101413.56;;;13.01;68.25
12636;BME280;6383;50.830;7.210;2023-04-30T00:17:20;101415.78;;;12.99;67.93
12636;BME280;6383;50.830;7.210;2023-04-30T00:19:50;101420.19;;;12.95;67.78
12636;BME280;6383;50.830;7.210;2023-04-30T00:22:17;101421.88;;;12.91;68.36
12636;BME280;6383;50.830;7.210;2023-04-30T00:24:45;101417.31;;;12.87;68.29
12636;BME280;6383;50.830;7.210;2023-04-30T00:27:14;101424.19;;;12.84;68.94
12636;BME280;6383;50.830;7.210;2023-04-30T00:29:45;101424.75;;;12.81;68.41
12636;BME280;6383;50.830;7.210;2023-04-30T00:32:14;101431.63;;;12.79;68.21
12636;BME280;6383;50.830;7.210;2023-04-30T00:34:42;101425.13;;;12.75;67.94
12636;BME280;6383;50.830;7.210;2023-04-30T00:37:10;101430.38;;;12.71;67.92
12636;BME280;6383;50.830;7.210;2023-04-30T00:39:39;101430.94;;;12.68;68.47
12636;BME280;6383;50.830;7.210;2023-04-30T00:42:08;101432.88;;;12.67;68.22
12636;BME280;6383;50.830;7.210;2023-04-30T00:44:36;101433.75;;;12.63;67.97
12636;BME280;6383;50.830;7.210;2023-04-30T00:47:05;101434.63;;;12.58;68.15
12636;BME280;6383;50.830;7.210;2023-04-30T00:49:36;101430.34;;;12.52;67.62
12636;BME280;6383;50.830;7.210;2023-04-30T00:52:03;101432.00;;;12.48;68.15
12636;BME280;6383;50.830;7.210;2023-04-30T00:54:32;101435.94;;;12.42;68.50
12636;BME280;6383;50.830;7.210;2023-04-30T00:57:01;101432.97;;;12.39;68.23
12636;BME280;6383;50.830;7.210;2023-04-30T00:59:30;101440.63;;;12.36;68.03
12636;BME280;6383;50.830;7.210;2023-04-30T01:01:59;101445.84;;;12.33;68.20
12636;BME280;6383;50.830;7.210;2023-04-30T01:04:28;101444.22;;;12.32;67.93
12636;BME280;6383;50.830;7.210;2023-04-30T01:06:58;101436.34;;;12.30;68.23
12636;BME280;6383;50.830;7.210;2023-04-30T01:09:28;101437.44;;;12.29;67.89
12636;BME280;6383;50.830;7.210;2023-04-30T01:12:03;101440.97;;;12.30;67.38
12636;BME280;6383;50.830;7.210;2023-04-30T01:14:51;101438.53;;;12.28;67.54
12636;BME280;6383;50.830;7.210;2023-04-30T01:17:26;101436.69;;;12.24;67.27
12636;BME280;6383;50.830;7.210;2023-04-30T01:19:59;101438.06;;;12.21;67.21
12636;BME280;6383;50.830;7.210;2023-04-30T01:22:35;101430.75;;;12.17;67.19
12636;BME280;6383;50.830;7.210;2023-04-30T01:25:21;101439.53;;;12.14;67.79
12636;BME280;6383;50.830;7.210;2023-04-30T01:28:05;101440.09;;;12.11;67.21
12636;BME280;6383;50.830;7.210;2023-04-30T01:30:35;101432.19;;;12.09;67.30
12636;BME280;6383;50.830;7.210;2023-04-30T01:33:06;101434.69;;;12.06;67.44
12636;BME280;6383;50.830;7.210;2023-04-30T01:36:09;101432.53;;;12.02;66.69
12636;BME280;6383;50.830;7.210;2023-04-30T01:38:54;101440.50;;;11.99;67.26
12636;BME280;6383;50.830;7.210;2023-04-30T01:41:31;101431.25;;;11.95;66.79
12636;BME280;6383;50.830;7.210;2023-04-30T01:44:14;101437.03;;;11.88;67.56
12636;BME280;6383;50.830;7.210;2023-04-30T01:46:50;101437.63;;;11.85;66.80
12636;BME280;6383;50.830;7.210;2023-04-30T01:49:30;101439.00;;;11.83;67.41
12636;BME280;6383;50.830;7.210;2023-04-30T01:52:08;101439.84;;;11.83;67.15
12636;BME280;6383;50.830;7.210;2023-04-30T01:54:44;101439.31;;;11.81;67.26
12636;BME280;6383;50.830;7.210;2023-04-30T01:57:25;101433.59;;;11.78;66.77
12636;BME280;6383;50.830;7.210;2023-04-30T01:59:55;101438.78;;;11.74;66.80
12636;BME280;6383;50.830;7.210;2023-04-30T02:02:24;101437.16;;;11.73;67.22
12636;BME280;6383;50.830;7.210;2023-04-30T02:04:52;101436.31;;;11.73;67.36
12636;BME280;6383;50.830;7.210;2023-04-30T02:07:32;101444.28;;;11.69;67.35
12636;BME280;6383;50.830;7.210;2023-04-30T02:10:04;101442.38;;;11.70;67.50
12636;BME280;6383;50.830;7.210;2023-04-30T02:12:34;101433.38;;;11.69;67.14
12636;BME280;6383;50.830;7.210;2023-04-30T02:15:05;101434.72;;;11.72;67.50
12636;BME280;6383;50.830;7.210;2023-04-30T02:17:33;101439.38;;;11.71;67.73
12636;BME280;6383;50.830;7.210;2023-04-30T02:20:03;101448.38;;;11.72;68.51
12636;BME280;6383;50.830;7.210;2023-04-30T02:22:31;101439.88;;;11.73;69.21
12636;BME280;6383;50.830;7.210;2023-04-30T02:25:00;101445.59;;;11.77;69.86
12636;BME280;6383;50.830;7.210;2023-04-30T02:27:31;101448.28;;;11.82;69.75
12636;BME280;6383;50.830;7.210;2023-04-30T02:30:00;101438.72;;;11.84;69.60
12636;BME280;6383;50.830;7.210;2023-04-30T02:32:30;101451.00;;;11.87;69.90
12636;BME280;6383;50.830;7.210;2023-04-30T02:34:59;101453.41;;;11.88;68.72
12636;BME280;6383;50.830;7.210;2023-04-30T02:37:28;101454.50;;;11.87;68.50
12636;BME280;6383;50.830;7.210;2023-04-30T02:39:56;101443.91;;;11.86;67.98
12636;BME280;6383;50.830;7.210;2023-04-30T02:42:25;101450.47;;;11.85;67.87
12636;BME280;6383;50.830;7.210;2023-04-30T02:44:54;101442.56;;;11.83;66.95
12636;BME280;6383;50.830;7.210;2023-04-30T02:47:22;101441.50;;;11.79;66.93
12636;BME280;6383;50.830;7.210;2023-04-30T02:49:53;101448.88;;;11.74;67.10
12636;BME280;6383;50.830;7.210;2023-04-30T02:52:21;101445.09;;;11.70;66.99
12636;BME280;6383;50.830;7.210;2023-04-30T02:54:49;101446.50;;;11.67;66.82
12636;BME280;6383;50.830;7.210;2023-04-30T02:57:17;101456.31;;;11.63;66.77
12636;BME280;6383;50.830;7.210;2023-04-30T02:59:46;101449.31;;;11.57;66.33
12636;BME280;6383;50.830;7.210;2023-04-30T03:02:14;101455.59;;;11.52;66.82
12636;BME280;6383;50.830;7.210;2023-04-30T03:04:46;101447.19;;;11.49;65.86
12636;BME280;6383;50.830;7.210;2023-04-30T03:07:17;101455.38;;;11.44;65.95
12636;BME280;6383;50.830;7.210;2023-04-30T03:09:44;101457.88;;;11.40;66.21
12636;BME280;6383;50.830;7.210;2023-04-30T03:12:14;101457.63;;;11.37;65.84
12636;BME280;6383;50.830;7.210;2023-04-30T03:14:43;101457.13;;;11.29;65.37
12636;BME280;6383;50.830;7.210;2023-04-30T03:17:11;101457.19;;;11.24;65.42
12636;BME280;6383;50.830;7.210;2023-04-30T03:19:40;101458.00;;;11.20;65.52
12636;BME280;6383;50.830;7.210;2023-04-30T03:22:09;101459.66;;;11.16;65.94
12636;BME280;6383;50.830;7.210;2023-04-30T03:24:38;101461.84;;;11.14;65.94
12636;BME280;6383;50.830;7.210;2023-04-30T03:27:06;101454.00;;;11.12;65.62
12636;BME280;6383;50.830;7.210;2023-04-30T03:29:34;101458.91;;;11.10;65.76
12636;BME280;6383;50.830;7.210;2023-04-30T03:32:03;101463.28;;;11.06;65.78
12636;BME280;6383;50.830;7.210;2023-04-30T03:34:32;101464.38;;;11.05;65.72
12636;BME280;6383;50.830;7.210;2023-04-30T03:37:01;101454.03;;;11.02;65.71
12636;BME280;6383;50.830;7.210;2023-04-30T03:39:29;101448.31;;;10.99;65.84
12636;BME280;6383;50.830;7.210;2023-04-30T03:41:59;101452.44;;;10.96;65.64
12636;BME280;6383;50.830;7.210;2023-04-30T03:44:29;101453.81;;;10.93;65.55
12636;BME280;6383;50.830;7.210;2023-04-30T03:46:56;101457.91;;;10.91;65.73
12636;BME280;6383;50.830;7.210;2023-04-30T03:49:25;101458.19;;;10.89;65.30
12636;BME280;6383;50.830;7.210;2023-04-30T03:51:54;101455.47;;;10.89;65.42
12636;BME280;6383;50.830;7.210;2023-04-30T03:54:23;101457.66;;;10.87;65.17
12636;BME280;6383;50.830;7.210;2023-04-30T03:56:52;101457.69;;;10.82;65.43
12636;BME280;6383;50.830;7.210;2023-04-30T03:59:22;101449.53;;;10.77;65.50
12636;BME280;6383;50.830;7.210;2023-04-30T04:01:50;101456.09;;;10.76;65.79
12636;BME280;6383;50.830;7.210;2023-04-30T04:04:18;101449.00;;;10.75;65.97
12636;BME280;6383;50.830;7.210;2023-04-30T04:06:47;101450.09;;;10.74;65.60
12636;BME280;6383;50.830;7.210;2023-04-30T04:09:15;101447.66;;;10.73;66.10
12636;BME280;6383;50.830;7.210;2023-04-30T04:11:45;101445.22;;;10.71;65.85
12636;BME280;6383;50.830;7.210;2023-04-30T04:14:12;101451.75;;;10.70;65.40
12636;BME280;6383;50.830;7.210;2023-04-30T04:16:43;101454.75;;;10.69;65.42
12636;BME280;6383;50.830;7.210;2023-04-30T04:19:12;101461.88;;;10.65;65.95
12636;BME280;6383;50.830;7.210;2023-04-30T04:21:39;101464.84;;;10.63;65.68
12636;BME280;6383;50.830;7.210;2023-04-30T04:24:08;101460.78;;;10.60;65.87
12636;BME280;6383;50.830;7.210;2023-04-30T04:26:36;101461.88;;;10.59;65.45
12636;BME280;6383;50.830;7.210;2023-04-30T04:29:05;101465.69;;;10.58;65.57
12636;BME280;6383;50.830;7.210;2023-04-30T04:31:35;101468.41;;;10.58;65.27
12636;BME280;6383;50.830;7.210;2023-04-30T04:34:06;101463.25;;;10.57;65.40
12636;BME280;6383;50.830;7.210;2023-04-30T04:36:35;101467.06;;;10.56;65.99
12636;BME280;6383;50.830;7.210;2023-04-30T04:39:03;101470.88;;;10.55;65.55
12636;BME280;6383;50.830;7.210;2023-04-30T04:41:33;101476.31;;;10.55;65.71
12636;BME280;6383;50.830;7.210;2023-04-30T04:44:02;101470.59;;;10.56;65.62
12636;BME280;6383;50.830;7.210;2023-04-30T04:46:30;101472.50;;;10.56;65.65
12636;BME280;6383;50.830;7.210;2023-04-30T04:49:00;101473.88;;;10.53;65.96
12636;BME280;6383;50.830;7.210;2023-04-30T04:51:29;101483.97;;;10.53;66.09
12636;BME280;6383;50.830;7.210;2023-04-30T04:53:58;101478.53;;;10.53;66.00
12636;BME280;6383;50.830;7.210;2023-04-30T04:56:27;101474.16;;;10.52;65.44
12636;BME280;6383;50.830;7.210;2023-04-30T04:58:57;101479.88;;;10.50;66.13
12636;BME280;6383;50.830;7.210;2023-04-30T05:01:25;101475.25;;;10.51;66.04
12636;BME280;6383;50.830;7.210;2023-04-30T05:03:54;101466.00;;;10.52;66.75
12636;BME280;6383;50.830;7.210;2023-04-30T05:06:23;101471.69;;;10.55;67.43
12636;BME280;6383;50.830;7.210;2023-04-30T05:08:52;101474.66;;;10.59;67.17
12636;BME280;6383;50.830;7.210;2023-04-30T05:11:19;101470.59;;;10.62;67.25
12636;BME280;6383;50.830;7.210;2023-04-30T05:13:48;101475.22;;;10.61;67.14
12636;BME280;6383;50.830;7.210;2023-04-30T05:16:17;101480.09;;;10.64;67.92
12636;BME280;6383;50.830;7.210;2023-04-30T05:18:44;101482.28;;;10.67;67.80
12636;BME280;6383;50.830;7.210;2023-04-30T05:21:13;101485.00;;;10.67;67.54
12636;BME280;6383;50.830;7.210;2023-04-30T05:23:42;101490.13;;;10.69;67.41
12636;BME280;6383;50.830;7.210;2023-04-30T05:26:13;101489.59;;;10.72;68.23
12636;BME280;6383;50.830;7.210;2023-04-30T05:28:42;101501.84;;;10.74;68.14
12636;BME280;6383;50.830;7.210;2023-04-30T05:31:10;101497.47;;;10.78;67.72
12636;BME280;6383;50.830;7.210;2023-04-30T05:33:38;101500.72;;;10.80;67.93
12636;BME280;6383;50.830;7.210;2023-04-30T05:36:07;101501.78;;;10.84;68.32
12636;BME280;6383;50.830;7.210;2023-04-30T05:38:36;101506.94;;;10.86;68.36
12636;BME280;6383;50.830;7.210;2023-04-30T05:41:05;101508.84;;;10.90;68.74
12636;BME280;6383;50.830;7.210;2023-04-30T05:43:34;101518.38;;;10.93;69.38
12636;BME280;6383;50.830;7.210;2023-04-30T05:46:02;101520.78;;;11.00;69.25
12636;BME280;6383;50.830;7.210;2023-04-30T05:48:30;101511.78;;;11.04;69.28
12636;BME280;6383;50.830;7.210;2023-04-30T05:50:59;101518.31;;;11.08;69.42
12636;BME280;6383;50.830;7.210;2023-04-30T05:53:28;101518.56;;;11.12;69.13
12636;BME280;6383;50.830;7.210;2023-04-30T05:55:57;101513.88;;;11.17;68.81
12636;BME280;6383;50.830;7.210;2023-04-30T05:58:24;101515.78;;;11.22;69.05
12636;BME280;6383;50.830;7.210;2023-04-30T06:00:55;101514.63;;;11.28;68.92
12636;BME280;6383;50.830;7.210;2023-04-30T06:03:24;101514.88;;;11.31;69.61
12636;BME280;6383;50.830;7.210;2023-04-30T06:05:53;101507.78;;;11.36;69.84
12636;BME280;6383;50.830;7.210;2023-04-30T06:08:22;101512.94;;;11.42;70.16
12636;BME280;6383;50.830;7.210;2023-04-30T06:10:52;101509.34;;;11.47;70.28
12636;BME280;6383;50.830;7.210;2023-04-30T06:13:21;101512.84;;;11.52;70.52
12636;BME280;6383;50.830;7.210;2023-04-30T06:15:50;101509.28;;;11.57;70.18
12636;BME280;6383;50.830;7.210;2023-04-30T06:18:21;101507.84;;;11.64;70.29
12636;BME280;6383;50.830;7.210;2023-04-30T06:20:50;101520.38;;;11.71;70.21
12636;BME280;6383;50.830;7.210;2023-04-30T06:23:19;101507.50;;;11.76;70.25
12636;BME280;6383;50.830;7.210;2023-04-30T06:25:48;101502.84;;;11.82;70.39
12636;BME280;6383;50.830;7.210;2023-04-30T06:28:17;101505.22;;;11.88;70.64
12636;BME280;6383;50.830;7.210;2023-04-30T06:30:48;101498.63;;;11.94;70.73
12636;BME280;6383;50.830;7.210;2023-04-30T06:33:17;101509.72;;;12.03;71.26
12636;BME280;6383;50.830;7.210;2023-04-30T06:35:47;101505.88;;;12.09;70.88
12636;BME280;6383;50.830;7.210;2023-04-30T06:38:16;101505.22;;;12.17;70.41
12636;BME280;6383;50.830;7.210;2023-04-30T06:40:46;101503.28;;;12.23;69.75
12636;BME280;6383;50.830;7.210;2023-04-30T06:43:16;101501.53;;;12.32;70.19
12636;BME280;6383;50.830;7.210;2023-04-30T06:45:44;101497.38;;;12.40;69.94
12636;BME280;6383;50.830;7.210;2023-04-30T06:48:13;101495.09;;;12.47;69.75
12636;BME280;6383;50.830;7.210;2023-04-30T06:50:41;101495.88;;;12.52;68.93
12636;BME280;6383;50.830;7.210;2023-04-30T06:53:13;101504.53;;;12.59;69.08
12636;BME280;6383;50.830;7.210;2023-04-30T06:55:43;101502.53;;;12.65;68.63
12636;BME280;6383;50.830;7.210;2023-04-30T06:58:13;101503.53;;;12.74;68.81
12636;BME280;6383;50.830;7.210;2023-04-30T07:00:42;101503.97;;;12.81;68.46
12636;BME280;6383;50.830;7.210;2023-04-30T07:03:11;101505.56;;;12.87;68.66
12636;BME280;6383;50.830;7.210;2023-04-30T07:05:39;101492.34;;;12.94;68.95
12636;BME280;6383;50.830;7.210;2023-04-30T07:08:08;101499.91;;;13.02;68.59
12636;BME280;6383;50.830;7.210;2023-04-30T07:10:37;101489.41;;;13.10;68.56
12636;BME280;6383;50.830;7.210;2023-04-30T07:13:06;101491.22;;;13.19;69.39
12636;BME280;6383;50.830;7.210;2023-04-30T07:15:35;101493.28;;;13.27;69.06
12636;BME280;6383;50.830;7.210;2023-04-30T07:18:04;101483.91;;;13.33;68.02
12636;BME280;6383;50.830;7.210;2023-04-30T07:20:34;101485.44;;;13.39;67.26
12636;BME280;6383;50.830;7.210;2023-04-30T07:23:01;101487.81;;;13.46;67.61
12636;BME280;6383;50.830;7.210;2023-04-30T07:25:29;101488.53;;;13.52;67.10
12636;BME280;6383;50.830;7.210;2023-04-30T07:27:58;101484.63;;;13.58;67.34
12636;BME280;6383;50.830;7.210;2023-04-30T07:30:27;101488.91;;;13.64;67.50
12636;BME280;6383;50.830;7.210;2023-04-30T07:32:55;101479.50;;;13.70;67.11
12636;BME280;6383;50.830;7.210;2023-04-30T07:35:25;101477.50;;;13.75;66.30
12636;BME280;6383;50.830;7.210;2023-04-30T07:37:52;101478.19;;;13.81;66.14
12636;BME280;6383;50.830;7.210;2023-04-30T07:40:21;101487.38;;;13.90;65.73
12636;BME280;6383;50.830;7.210;2023-04-30T07:42:51;101477.66;;;13.98;66.91
12636;BME280;6383;50.830;7.210;2023-04-30T07:45:21;101480.53;;;14.06;67.05
12636;BME280;6383;50.830;7.210;2023-04-30T07:47:49;101475.97;;;14.16;65.96
12636;BME280;6383;50.830;7.210;2023-04-30T07:50:18;101469.81;;;14.24;64.95
12636;BME280;6383;50.830;7.210;2023-04-30T07:52:47;101475.38;;;14.32;65.88
12636;BME280;6383;50.830;7.210;2023-04-30T07:55:20;101471.13;;;14.40;64.15
12636;BME280;6383;50.830;7.210;2023-04-30T07:57:47;101474.00;;;14.49;63.55
12636;BME280;6383;50.830;7.210;2023-04-30T08:00:15;101471.34;;;14.57;64.37
12636;BME280;6383;50.830;7.210;2023-04-30T08:02:46;101475.53;;;14.68;64.93
12636;BME280;6383;50.830;7.210;2023-04-30T08:05:16;101472.88;;;14.77;63.17
12636;BME280;6383;50.830;7.210;2023-04-30T08:07:43;101462.28;;;14.84;61.73
12636;BME280;6383;50.830;7.210;2023-04-30T08:10:13;101462.91;;;14.95;62.04
12636;BME280;6383;50.830;7.210;2023-04-30T08:12:42;101475.56;;;15.04;61.32
12636;BME280;6383;50.830;7.210;2023-04-30T08:15:11;101474.50;;;15.14;61.20
12636;BME280;6383;50.830;7.210;2023-04-30T08:17:40;101481.09;;;15.27;59.06
12636;BME280;6383;50.830;7.210;2023-04-30T08:20:10;101473.44;;;15.37;58.57
12636;BME280;6383;50.830;7.210;2023-04-30T08:22:38;101476.75;;;15.48;58.38
12636;BME280;6383;50.830;7.210;2023-04-30T08:25:09;101477.31;;;15.59;56.92
12636;BME280;6383;50.830;7.210;2023-04-30T08:27:38;101469.69;;;15.69;57.16
12636;BME280;6383;50.830;7.210;2023-04-30T08:30:08;101469.41;;;15.79;56.36
12636;BME280;6383;50.830;7.210;2023-04-30T08:32:37;101474.00;;;15.93;54.93
12636;BME280;6383;50.830;7.210;2023-04-30T08:35:07;101466.66;;;16.02;53.21
12636;BME280;6383;50.830;7.210;2023-04-30T08:37:38;101467.00;;;16.09;54.17
12636;BME280;6383;50.830;7.210;2023-04-30T08:40:08;101466.25;;;16.17;54.53
12636;BME280;6383;50.830;7.210;2023-04-30T08:42:43;101463.22;;;16.27;53.03
12636;BME280;6383;50.830;7.210;2023-04-30T08:45:13;101464.38;;;16.35;52.51
12636;BME280;6383;50.830;7.210;2023-04-30T08:47:41;101465.22;;;16.44;51.95
12636;BME280;6383;50.830;7.210;2023-04-30T08:50:11;101457.00;;;16.52;51.92
12636;BME280;6383;50.830;7.210;2023-04-30T08:52:41;101453.00;;;16.58;51.95
12636;BME280;6383;50.830;7.210;2023-04-30T08:55:09;101448.97;;;16.65;51.33
12636;BME280;6383;50.830;7.210;2023-04-30T08:57:39;101452.09;;;16.72;50.09
12636;BME280;6383;50.830;7.210;2023-04-30T09:00:08;101453.22;;;16.79;48.71
12636;BME280;6383;50.830;7.210;2023-04-30T09:02:39;101454.56;;;16.90;49.05
12636;BME280;6383;50.830;7.210;2023-04-30T09:05:10;101449.72;;;17.05;48.13
12636;BME280;6383;50.830;7.210;2023-04-30T09:07:41;101435.16;;;17.13;47.18
12636;BME280;6383;50.830;7.210;2023-04-30T09:10:14;101434.00;;;17.22;47.06
12636;BME280;6383;50.830;7.210;2023-04-30T09:12:57;101435.97;;;17.31;47.61
12636;BME280;6383;50.830;7.210;2023-04-30T09:15:26;101443.88;;;17.41;48.55
12636;BME280;6383;50.830;7.210;2023-04-30T09:18:09;101440.31;;;17.49;46.72
12636;BME280;6383;50.830;7.210;2023-04-30T09:20:54;101436.75;;;17.57;45.95
12636;BME280;6383;50.830;7.210;2023-04-30T09:23:24;101430.09;;;17.67;46.70
12636;BME280;6383;50.830;7.210;2023-04-30T09:25:53;101428.00;;;17.72;46.95
12636;BME280;6383;50.830;7.210;2023-04-30T09:28:22;101424.75;;;17.79;45.48
12636;BME280;6383;50.830;7.210;2023-04-30T09:30:55;101412.41;;;17.85;44.05
12636;BME280;6383;50.830;7.210;2023-04-30T09:33:24;101413.22;;;17.94;43.86
12636;BME280;6383;50.830;7.210;2023-04-30T09:35:52;101410.41;;;18.03;44.07
12636;BME280;6383;50.830;7.210;2023-04-30T09:38:26;101405.34;;;18.13;43.71
12636;BME280;6383;50.830;7.210;2023-04-30T09:40:57;101407.75;;;18.23;43.97
12636;BME280;6383;50.830;7.210;2023-04-30T09:43:26;101406.41;;;18.29;43.19
12636;BME280;6383;50.830;7.210;2023-04-30T09:45:57;101408.66;;;18.36;44.60
12636;BME280;6383;50.830;7.210;2023-04-30T09:48:26;101401.78;;;18.42;42.57
12636;BME280;6383;50.830;7.210;2023-04-30T09:50:55;101404.03;;;18.49;41.14
12636;BME280;6383;50.830;7.210;2023-04-30T09:53:26;101405.47;;;18.55;41.42
12636;BME280;6383;50.830;7.210;2023-04-30T09:55:57;101409.34;;;18.62;41.61
12636;BME280;6383;50.830;7.210;2023-04-30T09:58:27;101409.16;;;18.67;41.63
12636;BME280;6383;50.830;7.210;2023-04-30T10:00:58;101398.59;;;18.70;40.95
12636;BME280;6383;50.830;7.210;2023-04-30T10:03:29;101395.16;;;18.73;41.28
12636;BME280;6383;50.830;7.210;2023-04-30T10:05:58;101394.47;;;18.76;40.75
12636;BME280;6383;50.830;7.210;2023-04-30T10:08:30;101390.06;;;18.83;40.07
12636;BME280;6383;50.830;7.210;2023-04-30T10:11:02;101377.47;;;18.94;39.38
12636;BME280;6383;50.830;7.210;2023-04-30T10:13:31;101376.59;;;19.02;40.98
12636;BME280;6383;50.830;7.210;2023-04-30T10:16:05;101378.25;;;19.16;40.19
12636;BME280;6383;50.830;7.210;2023-04-30T10:18:37;101373.47;;;19.25;40.01
12636;BME280;6383;50.830;7.210;2023-04-30T10:21:11;101371.78;;;19.32;39.93
12636;BME280;6383;50.830;7.210;2023-04-30T10:23:46;101373.66;;;19.41;40.58
12636;BME280;6383;50.830;7.210;2023-04-30T10:26:14;101368.38;;;19.48;41.19
12636;BME280;6383;50.830;7.210;2023-04-30T10:28:44;101359.09;;;19.52;39.88
12636;BME280;6383;50.830;7.210;2023-04-30T10:31:17;101366.38;;;19.57;39.53
12636;BME280;6383;50.830;7.210;2023-04-30T10:33:53;101363.84;;;19.64;39.86
12636;BME280;6383;50.830;7.210;2023-04-30T10:36:32;101359.38;;;19.71;38.67
12636;BME280;6383;50.830;7.210;2023-04-30T10:39:07;101355.22;;;19.78;38.63
12636;BME280;6383;50.830;7.210;2023-04-30T10:41:36;101362.03;;;19.80;39.53
12636;BME280;6383;50.830;7.210;2023-04-30T10:44:06;101353.53;;;19.85;37.98
12636;BME280;6383;50.830;7.210;2023-04-30T10:46:38;101360.44;;;19.91;37.91
12636;BME280;6383;50.830;7.210;2023-04-30T10:49:07;101346.75;;;19.95;37.69
12636;BME280;6383;50.830;7.210;2023-04-30T10:51:45;101344.56;;;20.00;37.49
12636;BME280;6383;50.830;7.210;2023-04-30T10:54:23;101337.16;;;20.04;38.12
12636;BME280;6383;50.830;7.210;2023-04-30T10:56:58;101338.91;;;20.09;38.59
12636;BME280;6383;50.830;7.210;2023-04-30T10:59:36;101341.56;;;20.18;39.07
12636;BME280;6383;50.830;7.210;2023-04-30T11:02:08;101338.22;;;20.24;39.47
12636;BME280;6383;50.830;7.210;2023-04-30T11:05:08;101331.31;;;20.30;38.35
12636;BME280;6383;50.830;7.210;2023-04-30T11:07:46;101323.09;;;20.34;37.80
12636;BME280;6383;50.830;7.210;2023-04-30T11:10:20;101326.81;;;20.38;38.58
12636;BME280;6383;50.830;7.210;2023-04-30T11:12:50;101315.53;;;20.43;37.68
12636;BME280;6383;50.830;7.210;2023-04-30T11:15:20;101313.78;;;20.51;37.98
12636;BME280;6383;50.830;7.210;2023-04-30T11:17:49;101306.50;;;20.58;37.09
12636;BME280;6383;50.830;7.210;2023-04-30T11:20:19;101305.56;;;20.66;37.68
12636;BME280;6383;50.830;7.210;2023-04-30T11:22:47;101307.38;;;20.74;36.93
12636;BME280;6383;50.830;7.210;2023-04-30T11:25:18;101301.50;;;20.76;35.96
12636;BME280;6383;50.830;7.210;2023-04-30T11:27:49;101292.75;;;20.74;36.58
12636;BME280;6383;50.830;7.210;2023-04-30T11:30:18;101294.09;;;20.80;36.42
12636;BME280;6383;50.830;7.210;2023-04-30T11:32:48;101298.13;;;20.83;36.62
12636;BME280;6383;50.830;7.210;2023-04-30T11:35:17;101300.66;;;20.88;36.26
12636;BME280;6383;50.830;7.210;2023-04-30T11:37:47;101298.41;;;20.93;36.73
12636;BME280;6383;50.830;7.210;2023-04-30T11:40:16;101288.59;;;20.96;36.51
12636;BME280;6383;50.830;7.210;2023-04-30T11:42:46;101287.91;;;20.99;36.68
12636;BME280;6383;50.830;7.210;2023-04-30T11:45:16;101276.03;;;20.98;36.19
12636;BME280;6383;50.830;7.210;2023-04-30T11:47:48;101282.25;;;20.95;35.72
12636;BME280;6383;50.830;7.210;2023-04-30T11:50:19;101279.84;;;20.94;35.88
12636;BME280;6383;50.830;7.210;2023-04-30T11:52:56;101275.91;;;20.95;35.43
12636;BME280;6383;50.830;7.210;2023-04-30T11:55:27;101270.94;;;21.00;36.44
12636;BME280;6383;50.830;7.210;2023-04-30T11:57:58;101268.34;;;21.07;37.39
12636;BME280;6383;50.830;7.210;2023-04-30T12:00:29;101268.00;;;21.09;36.76
12636;BME280;6383;50.830;7.210;2023-04-30T12:02:59;101269.63;;;21.10;36.63
12636;BME280;6383;50.830;7.210;2023-04-30T12:05:28;101263.03;;;21.15;36.88
12636;BME280;6383;50.830;7.210;2023-04-30T12:07:59;101258.06;;;21.20;36.20
12636;BME280;6383;50.830;7.210;2023-04-30T12:10:30;101253.41;;;21.24;35.35
12636;BME280;6383;50.830;7.210;2023-04-30T12:13:01;101247.63;;;21.29;35.70
12636;BME280;6383;50.830;7.210;2023-04-30T12:15:29;101256.84;;;21.33;35.40
12636;BME280;6383;50.830;7.210;2023-04-30T12:17:59;101253.78;;;21.38;35.70
12636;BME280;6383;50.830;7.210;2023-04-30T12:20:39;101252.00;;;21.46;35.32
12636;BME280;6383;50.830;7.210;2023-04-30T12:23:09;101249.41;;;21.53;35.50
12636;BME280;6383;50.830;7.210;2023-04-30T12:25:41;101245.56;;;21.58;36.00
12636;BME280;6383;50.830;7.210;2023-04-30T12:28:12;101242.81;;;21.58;35.67
12636;BME280;6383;50.830;7.210;2023-04-30T12:30:41;101234.13;;;21.59;34.66
12636;BME280;6383;50.830;7.210;2023-04-30T12:33:11;101238.78;;;21.55;33.88
12636;BME280;6383;50.830;7.210;2023-04-30T12:35:41;101238.63;;;21.48;34.25
12636;BME280;6383;50.830;7.210;2023-04-30T12:38:15;101239.78;;;21.47;35.07
12636;BME280;6383;50.830;7.210;2023-04-30T12:40:46;101239.44;;;21.49;34.96
12636;BME280;6383;50.830;7.210;2023-04-30T12:43:17;101229.97;;;21.50;35.34
12636;BME280;6383;50.830;7.210;2023-04-30T12:45:48;101226.84;;;21.51;35.37
12636;BME280;6383;50.830;7.210;2023-04-30T12:48:18;101231.19;;;21.52;34.25
12636;BME280;6383;50.830;7.210;2023-04-30T12:50:53;101231.97;;;21.53;34.67
12636;BME280;6383;50.830;7.210;2023-04-30T12:53:21;101229.22;;;21.53;34.37
12636;BME280;6383;50.830;7.210;2023-04-30T12:56:09;101224.56;;;21.57;34.21
12636;BME280;6383;50.830;7.210;2023-04-30T12:58:40;101215.91;;;21.58;34.35
12636;BME280;6383;50.830;7.210;2023-04-30T13:01:14;101215.91;;;21.58;35.77
12636;BME280;6383;50.830;7.210;2023-04-30T13:03:42;101219.13;;;21.60;35.54
12636;BME280;6383;50.830;7.210;2023-04-30T13:06:11;101214.53;;;21.68;34.56
12636;BME280;6383;50.830;7.210;2023-04-30T13:08:40;101206.41;;;21.75;35.35
12636;BME280;6383;50.830;7.210;2023-04-30T13:11:08;101203.44;;;21.83;35.79
12636;BME280;6383;50.830;7.210;2023-04-30T13:13:38;101196.81;;;21.88;35.64
12636;BME280;6383;50.830;7.210;2023-04-30T13:16:08;101194.03;;;21.88;34.81
12636;BME280;6383;50.830;7.210;2023-04-30T13:18:35;101206.66;;;21.86;34.00